This is the latest recevied weather packets stored in our database for station/object KD8TSA. If no packets are shown the sender has not sent any weather packets the latest 1 day(s).
| Time | Temp. | Humidity | Pressure | Rain* | Wind** | Luminosity | Snow |
|---|---|---|---|---|---|---|---|
| 1778108569 | 12.78° C | 67% | 1012.4 hPa | 0 mm | - | 117 W/m² | - |
| 1778106440 | 13.33° C | 67% | 1012.7 hPa | 0 mm | - | 170 W/m² | - |
| 1778106134 | 13.33° C | 67% | 1012.6 hPa | 0 mm | - | 133 W/m² | - |
| 1778105833 | 13.89° C | 67% | 1012.6 hPa | 0 mm | - | 122 W/m² | - |
| 1778105531 | 13.33° C | 67% | 1012.2 hPa | 0 mm | - | 169 W/m² | - |
| 1778104923 | 13.89° C | 67% | 1012.6 hPa | 0 mm | - | 128 W/m² | - |
| 1778104620 | 13.89° C | 67% | 1012.5 hPa | 0 mm | - | 151 W/m² | - |
| 1778104012 | 13.89° C | 65% | 1012.2 hPa | 0 mm | - | 155 W/m² | - |
| 1778103709 | 13.89° C | 65% | 1012.1 hPa | 0 mm | - | 132 W/m² | - |
| 1778102192 | 14.44° C | 65% | 1011.8 hPa | 0 mm | - | 204 W/m² | - |
| 1778101889 | 14.44° C | 66% | 1011.7 hPa | 0 mm | - | 198 W/m² | - |
| 1778100674 | 14.44° C | 63% | 1011.6 hPa | 0 mm | - | 200 W/m² | - |
| 1778097645 | 15° C | 64% | 1011.7 hPa | 0 mm | - | 312 W/m² | - |
| 1778096129 | 15° C | 63% | 1011.7 hPa | 0 mm | - | 373 W/m² | - |
| 1778095219 | 15.56° C | 63% | 1011.5 hPa | 0 mm | - | 673 W/m² | - |
| 1778094916 | 15.56° C | 65% | 1011.4 hPa | 0 mm | - | 619 W/m² | - |
| 1778094612 | 15.56° C | 64% | 1011.4 hPa | 0 mm | - | 694 W/m² | - |
| 1778093097 | 15° C | 65% | 1011.6 hPa | 0 mm | - | 820 W/m² | - |
| 1778092794 | 15° C | 62% | 1011.4 hPa | 0 mm | - | 810 W/m² | - |
| 1778090667 | 14.44° C | 64% | 1011.7 hPa | 0 mm | - | 771 W/m² | - |
| 1778090364 | 14.44° C | 64% | 1012.1 hPa | 0 mm | - | 803 W/m² | - |
| 1778087940 | 13.89° C | 71% | 1011.8 hPa | 0 mm | - | 718 W/m² | - |
| 1778087334 | 13.89° C | 70% | 1011.8 hPa | 0 mm | - | 706 W/m² | - |
| 1778084297 | 12.78° C | 75% | 1011.9 hPa | 0 mm | - | 558 W/m² | - |
| 1778083994 | 12.22° C | 76% | 1012 hPa | 0 mm | - | 473 W/m² | - |
* Rain latest hour (hover to see other rain measurements)
** Current wind speed in m/s (hover to see current wind gust speed)